createdAt,value
2018-04-23T00:00:18.669Z,0
2018-04-23T00:01:27.515Z,0
2018-04-23T00:02:36.627Z,0
2018-04-23T00:03:45.462Z,0
2018-04-23T00:04:54.302Z,0
2018-04-23T00:06:03.138Z,0
2018-04-23T00:07:11.973Z,0
2018-04-23T00:08:21.088Z,0
2018-04-23T00:09:29.920Z,0
2018-04-23T00:10:38.757Z,0
2018-04-23T00:11:47.867Z,0
2018-04-23T00:12:56.709Z,0
2018-04-23T00:14:05.542Z,0
2018-04-23T00:15:14.379Z,0
2018-04-23T00:16:23.215Z,0
2018-04-23T00:17:32.049Z,0
2018-04-23T00:18:40.887Z,0
2018-04-23T00:19:49.723Z,0
2018-04-23T00:20:58.555Z,0
2018-04-23T00:22:07.389Z,0
2018-04-23T00:23:16.221Z,0
2018-04-23T00:24:25.054Z,0
2018-04-23T00:25:33.889Z,0
2018-04-23T00:26:42.999Z,0
2018-04-23T00:27:51.836Z,0
2018-04-23T00:29:00.666Z,0
2018-04-23T00:30:09.497Z,0
2018-04-23T00:31:18.334Z,0
2018-04-23T00:32:27.449Z,0
2018-04-23T00:33:36.285Z,0
2018-04-23T00:34:45.116Z,0
2018-04-23T00:35:53.950Z,0
2018-04-23T00:37:02.785Z,0
2018-04-23T00:38:11.620Z,0
2018-04-23T00:39:20.725Z,0
2018-04-23T00:40:29.561Z,0
2018-04-23T00:41:38.398Z,0
2018-04-23T00:42:47.235Z,0
2018-04-23T00:43:56.071Z,0
2018-04-23T00:45:05.453Z,0
2018-04-23T00:46:14.569Z,0
2018-04-23T00:47:23.401Z,0
2018-04-23T00:48:32.239Z,0
2018-04-23T00:49:41.107Z,0
2018-04-23T00:50:49.906Z,0
2018-04-23T00:51:59.023Z,0
2018-04-23T00:53:08.136Z,0
2018-04-23T00:54:16.972Z,0
2018-04-23T00:55:26.362Z,0
2018-04-23T00:56:35.198Z,0
2018-04-23T00:57:44.307Z,0
2018-04-23T00:58:53.151Z,0
2018-04-23T01:00:01.984Z,0
2018-04-23T01:01:10.822Z,0
2018-04-23T01:02:19.657Z,0
2018-04-23T01:03:28.494Z,0
2018-04-23T01:04:37.603Z,0
2018-04-23T01:05:46.443Z,0
2018-04-23T01:06:55.556Z,0
2018-04-23T01:08:04.392Z,0
2018-04-23T01:09:13.227Z,0
2018-04-23T01:10:22.065Z,0
2018-04-23T01:11:30.898Z,0
2018-04-23T01:12:39.730Z,0
2018-04-23T01:13:48.841Z,0
2018-04-23T01:14:57.950Z,0
2018-04-23T01:16:07.064Z,0
2018-04-23T01:17:15.899Z,0
2018-04-23T01:18:24.736Z,0
2018-04-23T01:19:33.570Z,0
2018-04-23T01:20:42.687Z,0
2018-04-23T01:21:51.794Z,0
2018-04-23T01:23:00.631Z,0
2018-04-23T01:24:09.464Z,0
2018-04-23T01:25:18.576Z,0
2018-04-23T01:26:27.411Z,0
2018-04-23T01:27:36.246Z,0
2018-04-23T01:28:45.080Z,0
2018-04-23T01:29:54.186Z,0
2018-04-23T01:31:03.021Z,0
2018-04-23T01:32:11.855Z,0
2018-04-23T01:33:20.692Z,0
2018-04-23T01:34:29.527Z,0
2018-04-23T01:35:38.910Z,0
2018-04-23T01:36:47.795Z,0
2018-04-23T01:37:56.631Z,0
2018-04-23T01:39:05.468Z,0
2018-04-23T01:40:14.302Z,0
2018-04-23T01:41:23.693Z,0
2018-04-23T01:42:32.537Z,0
2018-04-23T01:43:41.373Z,0
2018-04-23T01:44:50.208Z,0
2018-04-23T01:45:59.042Z,0
2018-04-23T01:47:07.878Z,0
2018-04-23T01:48:16.713Z,0
2018-04-23T01:49:25.547Z,0
2018-04-23T01:50:34.379Z,0
2018-04-23T01:51:43.213Z,0
2018-04-23T01:52:52.320Z,0
2018-04-23T01:54:01.157Z,0
2018-04-23T01:55:10.269Z,0
2018-04-23T01:56:19.108Z,0
2018-04-23T01:57:27.946Z,0
2018-04-23T01:58:37.065Z,0
2018-04-23T01:59:45.897Z,0
2018-04-23T02:00:54.730Z,0
2018-04-23T02:02:03.569Z,0
2018-04-23T02:03:12.680Z,0
2018-04-23T02:04:21.517Z,0
2018-04-23T02:05:30.630Z,0
2018-04-23T02:06:39.748Z,0
2018-04-23T02:07:48.585Z,0
2018-04-23T02:08:57.422Z,0
2018-04-23T02:10:06.537Z,0
2018-04-23T02:11:15.644Z,0
2018-04-23T02:12:24.478Z,0
2018-04-23T02:13:33.587Z,0
2018-04-23T02:14:42.427Z,0
2018-04-23T02:15:51.266Z,0
2018-04-23T02:17:00.380Z,0
2018-04-23T02:18:09.224Z,0
2018-04-23T02:19:18.338Z,0
2018-04-23T02:20:27.179Z,0
2018-04-23T02:21:36.013Z,0
2018-04-23T02:22:44.845Z,0
2018-04-23T02:23:53.677Z,0
2018-04-23T02:25:02.514Z,0
2018-04-23T02:26:11.350Z,0
2018-04-23T02:27:20.191Z,0
2018-04-23T02:28:29.080Z,0
2018-04-23T02:29:38.740Z,0
2018-04-23T02:30:47.852Z,0
2018-04-23T02:31:56.689Z,0
2018-04-23T02:33:05.529Z,0
2018-04-23T02:34:14.930Z,0
2018-04-23T02:35:24.304Z,0
2018-04-23T02:36:33.700Z,0
2018-04-23T02:37:42.545Z,0
2018-04-23T02:38:51.670Z,0
2018-04-23T02:40:00.513Z,0
2018-04-23T02:41:09.351Z,0
2018-04-23T02:42:18.751Z,0
2018-04-23T02:43:28.424Z,0
2018-04-23T02:44:37.265Z,0
2018-04-23T02:45:46.254Z,0
2018-04-23T02:46:55.638Z,0
2018-04-23T02:48:04.481Z,0
2018-04-23T02:49:13.593Z,0
2018-04-23T02:50:22.707Z,0
2018-04-23T02:51:31.543Z,0
2018-04-23T02:52:40.652Z,0
2018-04-23T02:53:49.490Z,0
2018-04-23T02:54:58.326Z,0
2018-04-23T02:56:07.166Z,0
2018-04-23T02:57:16.831Z,0
2018-04-23T02:58:26.224Z,0
2018-04-23T02:59:35.345Z,0
2018-04-23T03:00:44.461Z,0
2018-04-23T03:01:53.841Z,0
2018-04-23T03:03:02.960Z,0
2018-04-23T03:04:12.078Z,0
2018-04-23T03:05:22.028Z,0
2018-04-23T03:06:31.139Z,0
2018-04-23T03:07:40.535Z,0
2018-04-23T03:08:49.370Z,0
2018-04-23T03:09:58.212Z,0
2018-04-23T03:11:07.592Z,0
2018-04-23T03:12:16.977Z,0
2018-04-23T03:13:26.091Z,0
2018-04-23T03:14:35.196Z,0
2018-04-23T03:15:44.034Z,0
2018-04-23T03:16:52.868Z,0
2018-04-23T03:18:01.700Z,0
2018-04-23T03:19:10.532Z,0
2018-04-23T03:20:19.372Z,0
2018-04-23T03:21:28.202Z,0
2018-04-23T03:22:37.035Z,0
2018-04-23T03:23:45.869Z,0
2018-04-23T03:24:54.705Z,0
2018-04-23T03:26:03.545Z,0
2018-04-23T03:27:12.380Z,0
2018-04-23T03:28:21.218Z,0
2018-04-23T03:29:30.057Z,0
2018-04-23T03:30:39.721Z,0
2018-04-23T03:31:48.838Z,0
2018-04-23T03:32:58.219Z,0
2018-04-23T03:34:07.057Z,0
2018-04-23T03:35:16.168Z,0
2018-04-23T03:36:25.002Z,0
2018-04-23T03:37:34.113Z,0
2018-04-23T03:38:42.947Z,0
2018-04-23T03:39:51.782Z,0
2018-04-23T03:41:00.618Z,0
2018-04-23T03:42:10.003Z,0
2018-04-23T03:43:19.111Z,0
2018-04-23T03:44:27.964Z,0
2018-04-23T03:45:36.785Z,0
2018-04-23T03:46:45.622Z,0
2018-04-23T03:47:54.453Z,0
2018-04-23T03:49:03.288Z,0
2018-04-23T03:50:12.126Z,0
2018-04-23T03:51:20.963Z,0
2018-04-23T03:52:29.798Z,0
2018-04-23T03:53:38.631Z,0
2018-04-23T03:54:47.741Z,0
2018-04-23T03:55:56.576Z,0
2018-04-23T03:57:05.687Z,0
2018-04-23T03:58:14.523Z,0
2018-04-23T03:59:23.361Z,0
2018-04-23T04:00:32.473Z,0
2018-04-23T04:01:41.309Z,0
2018-04-23T04:02:50.418Z,0
2018-04-23T04:03:59.528Z,5
2018-04-23T04:05:08.361Z,5
2018-04-23T04:06:17.197Z,5
2018-04-23T04:07:26.034Z,5
2018-04-23T04:08:34.870Z,5
2018-04-23T04:09:43.979Z,5
2018-04-23T04:10:52.815Z,5
2018-04-23T04:12:01.950Z,10
2018-04-23T04:13:10.786Z,10
2018-04-23T04:14:19.897Z,10
2018-04-23T04:15:28.732Z,10
2018-04-23T04:16:37.565Z,10
2018-04-23T04:17:46.400Z,15
2018-04-23T04:18:55.239Z,15
2018-04-23T04:20:04.074Z,15
2018-04-23T04:21:13.184Z,20
2018-04-23T04:22:22.020Z,20
2018-04-23T04:23:30.856Z,20
2018-04-23T04:24:39.694Z,20
2018-04-23T04:25:48.804Z,25
2018-04-23T04:26:57.636Z,25
2018-04-23T04:28:06.472Z,25
2018-04-23T04:29:15.583Z,25
2018-04-23T04:30:24.417Z,30
2018-04-23T04:31:33.271Z,30
2018-04-23T04:32:42.090Z,35
2018-04-23T04:33:50.923Z,35
2018-04-23T04:34:59.759Z,35
2018-04-23T04:36:08.875Z,35
2018-04-23T04:37:17.709Z,40
2018-04-23T04:38:27.162Z,45
2018-04-23T04:39:36.269Z,45
2018-04-23T04:40:45.386Z,50
2018-04-23T04:41:54.498Z,50
2018-04-23T04:43:03.613Z,50
2018-04-23T04:44:12.450Z,55
2018-04-23T04:45:21.285Z,55
2018-04-23T04:46:30.529Z,55
2018-04-23T04:47:39.655Z,60
2018-04-23T04:48:48.491Z,60
2018-04-23T04:49:57.599Z,60
2018-04-23T04:51:06.437Z,60
2018-04-23T04:52:15.274Z,65
2018-04-23T04:53:24.113Z,65
2018-04-23T04:54:32.947Z,70
2018-04-23T04:55:41.834Z,75
2018-04-23T04:56:50.946Z,80
2018-04-23T04:57:59.785Z,80
2018-04-23T04:59:08.614Z,75
2018-04-23T05:00:17.724Z,75
2018-04-23T05:01:26.564Z,75
2018-04-23T05:02:35.400Z,75
2018-04-23T05:03:44.508Z,80
2018-04-23T05:04:53.622Z,80
2018-04-23T05:06:02.778Z,85
2018-04-23T05:07:11.613Z,90
2018-04-23T05:08:20.447Z,95
2018-04-23T05:09:29.287Z,100
2018-04-23T05:10:38.125Z,105
2018-04-23T05:11:47.250Z,110
2018-04-23T05:12:56.072Z,115
2018-04-23T05:14:05.104Z,115
2018-04-23T05:15:13.952Z,115
2018-04-23T05:16:22.784Z,120
2018-04-23T05:17:31.667Z,120
2018-04-23T05:18:40.506Z,120
2018-04-23T05:19:49.345Z,125
2018-04-23T05:20:58.179Z,130
2018-04-23T05:22:07.017Z,130
2018-04-23T05:23:15.850Z,135
2018-04-23T05:24:24.685Z,135
2018-04-23T05:25:33.523Z,140
2018-04-23T05:26:42.640Z,140
2018-04-23T05:27:51.473Z,145
2018-04-23T05:29:00.861Z,145
2018-04-23T05:30:10.277Z,150
2018-04-23T05:31:19.673Z,150
2018-04-23T05:32:28.785Z,150
2018-04-23T05:33:37.617Z,155
2018-04-23T05:34:46.504Z,160
2018-04-23T05:35:55.339Z,165
2018-04-23T05:37:04.730Z,180
2018-04-23T05:38:13.842Z,195
2018-04-23T05:39:22.680Z,170
2018-04-23T05:40:31.514Z,150
2018-04-23T05:41:40.622Z,130
2018-04-23T05:42:49.458Z,140
2018-04-23T05:43:58.627Z,140
2018-04-23T05:45:07.408Z,150
2018-04-23T05:46:16.522Z,170
2018-04-23T05:47:25.356Z,175
2018-04-23T05:48:34.192Z,180
2018-04-23T05:49:43.301Z,155
2018-04-23T05:50:52.410Z,150
2018-04-23T05:52:01.567Z,175
2018-04-23T05:53:10.404Z,210
2018-04-23T05:54:19.513Z,225
2018-04-23T05:55:28.348Z,225
2018-04-23T05:56:37.465Z,225
2018-04-23T05:57:46.300Z,220
2018-04-23T05:58:55.137Z,215
2018-04-23T06:00:03.972Z,205
2018-04-23T06:01:13.135Z,195
2018-04-23T06:02:21.971Z,195
2018-04-23T06:03:30.801Z,185
2018-04-23T06:04:39.637Z,180
2018-04-23T06:05:48.751Z,155
2018-04-23T06:06:57.859Z,160
2018-04-23T06:08:06.696Z,155
2018-04-23T06:09:15.532Z,160
2018-04-23T06:10:24.374Z,160
2018-04-23T06:11:33.212Z,145
2018-04-23T06:12:42.318Z,140
2018-04-23T06:13:51.155Z,135
2018-04-23T06:14:59.990Z,130
2018-04-23T06:16:08.826Z,130
2018-04-23T06:17:17.663Z,130
2018-04-23T06:18:26.498Z,130
2018-04-23T06:19:35.333Z,135
2018-04-23T06:20:44.268Z,135
2018-04-23T06:21:53.108Z,145
2018-04-23T06:23:01.942Z,150
2018-04-23T06:24:10.782Z,150
2018-04-23T06:25:19.901Z,160
2018-04-23T06:26:28.839Z,180
2018-04-23T06:27:37.673Z,190
2018-04-23T06:28:46.510Z,195
2018-04-23T06:29:55.344Z,195
2018-04-23T06:31:04.475Z,195
2018-04-23T06:32:13.313Z,185
2018-04-23T06:33:22.154Z,180
2018-04-23T06:34:31.554Z,185
2018-04-23T06:35:40.398Z,175
2018-04-23T06:36:49.244Z,175
2018-04-23T06:37:58.073Z,180
2018-04-23T06:39:06.909Z,175
2018-04-23T06:40:15.757Z,170
2018-04-23T06:41:24.579Z,165
2018-04-23T06:42:33.512Z,170
2018-04-23T06:43:42.347Z,175
2018-04-23T06:44:51.181Z,195
2018-04-23T06:46:00.015Z,220
2018-04-23T06:47:40.907Z,205
2018-04-23T06:48:49.743Z,220
2018-04-23T06:49:58.577Z,215
2018-04-23T06:51:07.689Z,220
2018-04-23T06:52:16.804Z,215
2018-04-23T06:53:25.689Z,215
2018-04-23T06:54:34.799Z,210
2018-04-23T06:55:43.909Z,235
2018-04-23T06:56:53.020Z,210
2018-04-23T06:58:01.855Z,220
2018-04-23T06:59:10.742Z,230
2018-04-23T07:00:19.578Z,210
2018-04-23T07:01:28.415Z,230
2018-04-23T07:02:37.252Z,275
2018-04-23T07:03:46.086Z,305
2018-04-23T07:04:55.715Z,300
2018-04-23T07:06:04.486Z,340
2018-04-23T07:07:13.324Z,295
2018-04-23T07:08:22.440Z,250
2018-04-23T07:09:31.275Z,300
2018-04-23T07:10:40.212Z,250
2018-04-23T07:11:49.048Z,350
2018-04-23T07:12:57.882Z,270
2018-04-23T07:14:06.714Z,305
2018-04-23T07:15:15.560Z,290
2018-04-23T07:16:24.672Z,340
2018-04-23T07:17:33.505Z,380
2018-04-23T07:18:42.345Z,355
2018-04-23T07:19:51.473Z,335
2018-04-23T07:21:00.307Z,315
2018-04-23T07:22:09.294Z,320
2018-04-23T07:23:18.131Z,245
2018-04-23T07:24:26.973Z,275
2018-04-23T07:25:36.085Z,415
2018-04-23T07:26:44.920Z,380
2018-04-23T07:27:53.856Z,310
2018-04-23T07:29:02.689Z,290
2018-04-23T07:30:11.532Z,270
2018-04-23T07:31:20.363Z,320
2018-04-23T07:32:29.205Z,360
2018-04-23T07:33:38.517Z,300
2018-04-23T07:34:47.384Z,330
2018-04-23T07:35:56.187Z,290
2018-04-23T07:37:05.300Z,305
2018-04-23T07:38:14.135Z,290
2018-04-23T07:39:23.075Z,280
2018-04-23T07:40:31.915Z,310
2018-04-23T07:41:40.753Z,360
2018-04-23T07:42:49.591Z,365
2018-04-23T07:43:58.426Z,385
2018-04-23T07:45:07.464Z,385
2018-04-23T07:46:16.572Z,385
2018-04-23T07:47:25.409Z,380
2018-04-23T07:48:34.247Z,455
2018-04-23T07:49:43.085Z,360
2018-04-23T07:50:51.970Z,370
2018-04-23T07:52:00.804Z,395
2018-04-23T07:53:09.637Z,425
2018-04-23T07:54:18.471Z,465
2018-04-23T07:55:27.588Z,450
2018-04-23T07:56:36.776Z,445
2018-04-23T07:57:45.614Z,380
2018-04-23T07:58:54.450Z,400
2018-04-23T08:00:03.312Z,425
2018-04-23T08:01:12.127Z,420
2018-04-23T08:02:21.112Z,495
2018-04-23T08:03:29.950Z,385
2018-04-23T08:04:38.788Z,370
2018-04-23T08:05:48.174Z,425
2018-04-23T08:06:57.011Z,480
2018-04-23T08:08:06.233Z,485
2018-04-23T08:09:15.067Z,420
2018-04-23T08:10:24.175Z,445
2018-04-23T08:11:33.011Z,495
2018-04-23T08:12:41.843Z,455
2018-04-23T08:13:50.779Z,490
2018-04-23T08:14:59.616Z,325
2018-04-23T08:16:08.452Z,435
2018-04-23T08:17:17.298Z,450
2018-04-23T08:18:26.688Z,445
2018-04-23T08:19:35.623Z,445
2018-04-23T08:20:44.734Z,430
2018-04-23T08:21:53.569Z,435
2018-04-23T08:23:02.408Z,515
2018-04-23T08:24:11.248Z,480
2018-04-23T08:25:20.136Z,370
2018-04-23T08:26:28.973Z,445
2018-04-23T08:27:37.810Z,555
2018-04-23T08:28:46.647Z,485
2018-04-23T08:29:55.485Z,455
2018-04-23T08:31:04.648Z,525
2018-04-23T08:32:13.486Z,470
2018-04-23T08:33:22.597Z,485
2018-04-23T08:34:31.432Z,480
2018-04-23T08:35:40.270Z,455
2018-04-23T08:36:49.410Z,440
2018-04-23T08:37:58.520Z,395
2018-04-23T08:39:07.359Z,375
2018-04-23T08:40:16.197Z,395
2018-04-23T08:41:25.039Z,415
2018-04-23T08:42:33.976Z,425
2018-04-23T08:43:42.836Z,370
2018-04-23T08:44:51.931Z,325
2018-04-23T08:46:00.763Z,465
2018-04-23T08:47:09.880Z,395
2018-04-23T08:48:19.371Z,375
2018-04-23T08:49:28.488Z,425
2018-04-23T08:50:37.323Z,510
2018-04-23T08:51:46.159Z,530
2018-04-23T08:52:55.321Z,520
2018-04-23T08:54:04.257Z,620
2018-04-23T08:55:13.646Z,520
2018-04-23T08:56:22.480Z,510
2018-04-23T08:57:31.320Z,485
2018-04-23T08:58:40.156Z,485
2018-04-23T08:59:48.992Z,460
2018-04-23T09:00:57.832Z,495
2018-04-23T09:02:06.675Z,380
2018-04-23T09:03:15.786Z,340
2018-04-23T09:04:24.622Z,450
2018-04-23T09:05:33.711Z,495
2018-04-23T09:06:42.551Z,445
2018-04-23T09:07:51.391Z,435
2018-04-23T09:09:00.503Z,430
2018-04-23T09:10:09.341Z,330
2018-04-23T09:11:18.226Z,315
2018-04-23T09:12:27.337Z,325
2018-04-23T09:13:36.173Z,385
2018-04-23T09:14:45.012Z,260
2018-04-23T09:15:53.850Z,335
2018-04-23T09:17:02.786Z,295
2018-04-23T09:18:11.625Z,320
2018-04-23T09:19:20.459Z,325
2018-04-23T09:20:29.570Z,325
2018-04-23T09:21:38.681Z,245
2018-04-23T09:22:47.672Z,280
2018-04-23T09:23:56.509Z,300
2018-04-23T09:25:05.618Z,275
2018-04-23T09:26:14.461Z,285
2018-04-23T09:27:23.294Z,265
2018-04-23T09:28:32.761Z,290
2018-04-23T09:29:41.848Z,300
2018-04-23T09:30:50.687Z,320
2018-04-23T09:31:59.801Z,405
2018-04-23T09:33:08.637Z,445
2018-04-23T09:34:17.475Z,415
2018-04-23T09:35:26.318Z,315
2018-04-23T09:36:35.429Z,345
2018-04-23T09:37:44.270Z,385
2018-04-23T09:38:53.385Z,480
2018-04-23T09:40:02.317Z,370
2018-04-23T09:41:11.155Z,460
2018-04-23T09:42:19.994Z,490
2018-04-23T09:43:28.829Z,535
2018-04-23T09:44:37.712Z,535
2018-04-23T09:45:46.601Z,360
2018-04-23T09:46:55.438Z,390
2018-04-23T09:48:04.275Z,480
2018-04-23T09:49:13.113Z,430
2018-04-23T09:50:22.225Z,395
2018-04-23T09:51:31.061Z,430
2018-04-23T09:52:39.898Z,500
2018-04-23T09:53:48.738Z,570
2018-04-23T09:54:57.573Z,655
2018-04-23T09:56:06.407Z,730
2018-04-23T09:57:15.296Z,605
2018-04-23T09:58:24.134Z,590
2018-04-23T09:59:32.973Z,540
2018-04-23T10:00:42.081Z,445
2018-04-23T10:01:50.916Z,460
2018-04-23T10:03:00.183Z,565
2018-04-23T10:04:09.293Z,665
2018-04-23T10:05:18.139Z,565
2018-04-23T10:06:26.964Z,550
2018-04-23T10:07:35.804Z,580
2018-04-23T10:08:44.742Z,575
2018-04-23T10:09:53.854Z,600
2018-04-23T10:11:02.702Z,570
2018-04-23T10:12:11.933Z,510
2018-04-23T10:13:20.744Z,525
2018-04-23T10:14:30.220Z,625
2018-04-23T10:15:39.622Z,630
2018-04-23T10:16:48.458Z,575
2018-04-23T10:17:57.298Z,520
2018-04-23T10:19:06.135Z,595
2018-04-23T10:20:14.975Z,475
2018-04-23T10:21:23.815Z,310
2018-04-23T10:22:32.927Z,325
2018-04-23T10:23:41.763Z,345
2018-04-23T10:24:50.603Z,360
2018-04-23T10:25:59.721Z,300
2018-04-23T10:27:08.560Z,265
2018-04-23T10:28:17.398Z,280
2018-04-23T10:29:26.237Z,325
2018-04-23T10:30:35.077Z,340
2018-04-23T10:31:44.289Z,335
2018-04-23T10:32:53.403Z,275
2018-04-23T10:34:02.521Z,290
2018-04-23T10:35:11.628Z,370
2018-04-23T10:36:20.468Z,375
2018-04-23T10:37:29.854Z,395
2018-04-23T10:38:38.691Z,395
2018-04-23T10:39:47.529Z,350
2018-04-23T10:40:56.365Z,375
2018-04-23T10:42:05.204Z,390
2018-04-23T10:43:14.037Z,305
2018-04-23T10:44:22.875Z,380
2018-04-23T10:45:32.030Z,390
2018-04-23T10:46:40.873Z,400
2018-04-23T10:47:49.710Z,415
2018-04-23T10:48:58.545Z,415
2018-04-23T10:50:07.382Z,450
2018-04-23T10:51:16.217Z,490
2018-04-23T10:52:25.331Z,565
2018-04-23T10:53:34.166Z,560
2018-04-23T10:54:43.006Z,520
2018-04-23T10:55:52.124Z,595
2018-04-23T10:57:00.961Z,645
2018-04-23T10:58:09.800Z,675
2018-04-23T10:59:18.637Z,500
2018-04-23T11:00:27.572Z,505
2018-04-23T11:01:36.409Z,605
2018-04-23T11:02:45.527Z,565
2018-04-23T11:03:54.639Z,415
2018-04-23T11:05:03.475Z,330
2018-04-23T11:06:12.314Z,330
2018-04-23T11:07:21.426Z,295
2018-04-23T11:08:30.260Z,335
2018-04-23T11:09:39.126Z,380
2018-04-23T11:10:47.930Z,495
2018-04-23T11:11:56.968Z,525
2018-04-23T11:13:05.808Z,575
2018-04-23T11:14:14.920Z,560
2018-04-23T11:15:23.756Z,460
2018-04-23T11:16:32.595Z,510
2018-04-23T11:17:41.532Z,515
2018-04-23T11:18:50.370Z,600
2018-04-23T11:19:59.485Z,570
2018-04-23T11:21:08.321Z,560
2018-04-23T11:22:17.435Z,685
2018-04-23T11:23:26.320Z,645
2018-04-23T11:24:35.434Z,605
2018-04-23T11:25:44.271Z,455
2018-04-23T11:26:53.153Z,375
2018-04-23T11:28:01.951Z,335
2018-04-23T11:29:11.062Z,375
2018-04-23T11:30:19.897Z,475
2018-04-23T11:31:29.021Z,510
2018-04-23T11:32:37.854Z,500
2018-04-23T11:33:46.964Z,560
2018-04-23T11:34:56.277Z,640
2018-04-23T11:36:05.116Z,705
2018-04-23T11:37:13.953Z,785
2018-04-23T11:38:22.791Z,615
2018-04-23T11:39:31.917Z,565
2018-04-23T11:40:41.247Z,560
2018-04-23T11:41:50.367Z,555
2018-04-23T11:42:59.203Z,545
2018-04-23T11:44:08.057Z,490
2018-04-23T11:45:16.877Z,440
2018-04-23T11:46:25.765Z,450
2018-04-23T11:47:34.906Z,495
2018-04-23T11:48:43.763Z,510
2018-04-23T11:49:52.878Z,565
2018-04-23T11:51:01.719Z,650
2018-04-23T11:52:10.613Z,690
2018-04-23T11:53:19.779Z,845
2018-04-23T11:54:28.619Z,1855
2018-04-23T11:55:37.740Z,2490
2018-04-23T11:56:46.579Z,660
2018-04-23T11:57:55.747Z,640
2018-04-23T11:59:04.634Z,2115
2018-04-23T12:00:13.475Z,2505
2018-04-23T12:01:22.439Z,2610
2018-04-23T12:02:31.322Z,2815
2018-04-23T12:03:40.168Z,2510
2018-04-23T12:04:49.290Z,2480
2018-04-23T12:05:58.674Z,830
2018-04-23T12:07:07.564Z,755
2018-04-23T12:08:16.404Z,685
2018-04-23T12:09:25.728Z,670
2018-04-23T12:10:34.884Z,735
2018-04-23T12:11:43.727Z,805
2018-04-23T12:12:52.847Z,655
2018-04-23T12:14:01.971Z,765
2018-04-23T12:15:10.909Z,2185
2018-04-23T12:16:20.440Z,710
2018-04-23T12:17:29.653Z,740
2018-04-23T12:18:38.496Z,605
2018-04-23T12:19:47.340Z,620
2018-04-23T12:20:56.482Z,640
2018-04-23T12:22:05.331Z,1015
2018-04-23T12:23:14.602Z,2975
2018-04-23T12:24:23.490Z,3420
2018-04-23T12:25:32.330Z,2810
2018-04-23T12:26:41.360Z,3610
2018-04-23T12:27:50.208Z,1100
2018-04-23T12:28:59.049Z,925
2018-04-23T12:30:07.924Z,855
2018-04-23T12:31:16.800Z,995
2018-04-23T12:32:25.656Z,895
2018-04-23T12:33:34.777Z,875
2018-04-23T12:34:43.619Z,830
2018-04-23T12:35:52.748Z,1285
2018-04-23T12:37:01.593Z,2645
2018-04-23T12:38:10.436Z,2670
2018-04-23T12:39:19.277Z,2830
2018-04-23T12:40:28.123Z,3315
2018-04-23T12:41:36.966Z,3575
2018-04-23T12:42:45.908Z,3535
2018-04-23T12:43:54.755Z,3305
2018-04-23T12:45:03.596Z,3370
2018-04-23T12:46:12.488Z,3505
2018-04-23T12:47:21.286Z,3315
2018-04-23T12:48:30.406Z,2640
2018-04-23T12:49:39.251Z,1310
2018-04-23T12:50:48.096Z,2540
2018-04-23T12:51:56.941Z,1245
2018-04-23T12:53:05.785Z,845
2018-04-23T12:54:14.629Z,1220
2018-04-23T12:55:23.482Z,2180
2018-04-23T12:56:32.325Z,2265
2018-04-23T12:57:41.453Z,1795
2018-04-23T12:58:50.847Z,715
2018-04-23T12:59:59.693Z,580
2018-04-23T13:01:08.539Z,595
2018-04-23T13:02:17.395Z,760
2018-04-23T13:03:26.389Z,880
2018-04-23T13:04:35.233Z,675
2018-04-23T13:05:44.077Z,550
2018-04-23T13:06:52.923Z,575
2018-04-23T13:08:01.766Z,705
2018-04-23T13:09:10.709Z,2260
2018-04-23T13:10:19.553Z,1940
2018-04-23T13:11:28.392Z,2180
2018-04-23T13:12:37.236Z,1035
2018-04-23T13:13:46.077Z,935
2018-04-23T13:14:54.921Z,1295
2018-04-23T13:16:03.763Z,1035
2018-04-23T13:17:12.605Z,1045
2018-04-23T13:18:21.455Z,690
2018-04-23T13:19:30.573Z,870
2018-04-23T13:20:39.516Z,630
2018-04-23T13:21:48.362Z,470
2018-04-23T13:22:57.472Z,490
2018-04-23T13:24:06.316Z,485
2018-04-23T13:25:15.433Z,570
2018-04-23T13:26:24.376Z,560
2018-04-23T13:27:33.495Z,605
2018-04-23T13:28:42.610Z,970
2018-04-23T13:29:51.828Z,1235
2018-04-23T13:31:00.668Z,1460
2018-04-23T13:32:09.834Z,1030
2018-04-23T13:33:19.228Z,1055
2018-04-23T13:34:28.084Z,955
2018-04-23T13:35:37.205Z,1295
2018-04-23T13:36:46.707Z,1355
2018-04-23T13:37:56.861Z,860
2018-04-23T13:39:05.707Z,1155
2018-04-23T13:40:14.549Z,2495
2018-04-23T13:41:23.393Z,3065
2018-04-23T13:42:32.546Z,1350
2018-04-23T13:43:42.004Z,3270
2018-04-23T13:44:51.135Z,3085
2018-04-23T13:46:00.260Z,2855
2018-04-23T13:47:09.107Z,2445
2018-04-23T13:48:17.968Z,1340
2018-04-23T13:49:26.810Z,1310
2018-04-23T13:50:35.666Z,520
2018-04-23T13:51:44.518Z,505
2018-04-23T13:52:53.642Z,390
2018-04-23T13:54:02.483Z,365
2018-04-23T13:55:11.526Z,425
2018-04-23T13:56:20.370Z,530
2018-04-23T13:57:29.210Z,575
2018-04-23T13:58:38.055Z,585
2018-04-23T13:59:46.898Z,740
2018-04-23T14:00:55.790Z,855
2018-04-23T14:02:04.637Z,3040
2018-04-23T14:03:13.476Z,2155
2018-04-23T14:04:22.598Z,2865
2018-04-23T14:05:31.442Z,970
2018-04-23T14:06:40.535Z,950
2018-04-23T14:07:49.387Z,490
2018-04-23T14:08:58.507Z,470
2018-04-23T14:10:07.402Z,435
2018-04-23T14:11:16.245Z,500
2018-04-23T14:12:25.367Z,520
2018-04-23T14:13:34.211Z,515
2018-04-23T14:14:43.326Z,550
2018-04-23T14:15:52.166Z,650
2018-04-23T14:17:01.293Z,1105
2018-04-23T14:18:10.323Z,1475
2018-04-23T14:19:19.446Z,2930
2018-04-23T14:20:28.289Z,2905
2018-04-23T14:21:37.416Z,3070
2018-04-23T14:22:46.701Z,785
2018-04-23T14:23:56.074Z,865
2018-04-23T14:25:04.934Z,655
2018-04-23T14:26:14.091Z,590
2018-04-23T14:27:22.940Z,590
2018-04-23T14:28:31.786Z,590
2018-04-23T14:29:40.739Z,715
2018-04-23T14:30:49.861Z,3045
2018-04-23T14:31:59.267Z,3090
2018-04-23T14:33:08.116Z,2550
2018-04-23T14:34:16.960Z,665
2018-04-23T14:35:25.804Z,540
2018-04-23T14:36:34.648Z,675
2018-04-23T14:37:43.534Z,600
2018-04-23T14:38:52.386Z,525
2018-04-23T14:40:01.247Z,505
2018-04-23T14:41:10.240Z,560
2018-04-23T14:42:19.140Z,590
2018-04-23T14:43:27.984Z,645
2018-04-23T14:44:36.824Z,940
2018-04-23T14:45:45.665Z,885
2018-04-23T14:46:54.783Z,745
2018-04-23T14:48:03.626Z,1080
2018-04-23T14:49:12.744Z,3140
2018-04-23T14:50:21.581Z,905
2018-04-23T14:51:30.428Z,1000
2018-04-23T14:52:39.547Z,2835
2018-04-23T14:53:48.387Z,2770
2018-04-23T14:54:57.236Z,2935
2018-04-23T14:56:06.080Z,2820
2018-04-23T14:57:14.923Z,2940
2018-04-23T14:58:24.063Z,2935
2018-04-23T14:59:33.504Z,2710
2018-04-23T15:00:42.353Z,2855
2018-04-23T15:01:51.195Z,735
2018-04-23T15:03:00.318Z,2455
2018-04-23T15:04:09.441Z,2005
2018-04-23T15:05:18.285Z,655
2018-04-23T15:06:27.132Z,470
2018-04-23T15:07:35.976Z,405
2018-04-23T15:08:44.822Z,420
2018-04-23T15:09:53.667Z,410
2018-04-23T15:11:03.082Z,485
2018-04-23T15:12:11.928Z,470
2018-04-23T15:13:20.771Z,2370
2018-04-23T15:14:29.611Z,1625
2018-04-23T15:15:38.459Z,2390
2018-04-23T15:16:47.314Z,2615
2018-04-23T15:17:56.459Z,2725
2018-04-23T15:19:05.575Z,2530
2018-04-23T15:20:14.422Z,2445
2018-04-23T15:21:23.273Z,2160
2018-04-23T15:22:32.116Z,560
2018-04-23T15:23:41.061Z,585
2018-04-23T15:24:49.910Z,755
2018-04-23T15:25:58.759Z,860
2018-04-23T15:27:07.885Z,2060
2018-04-23T15:28:16.726Z,2450
2018-04-23T15:29:25.669Z,2615
2018-04-23T15:30:34.613Z,2195
2018-04-23T15:31:43.730Z,2170
2018-04-23T15:32:52.573Z,1690
2018-04-23T15:34:01.968Z,665
2018-04-23T15:35:11.279Z,695
2018-04-23T15:36:20.056Z,740
2018-04-23T15:37:28.898Z,725
2018-04-23T15:38:37.744Z,2455
2018-04-23T15:39:46.588Z,2390
2018-04-23T15:40:55.532Z,2145
2018-04-23T15:42:04.653Z,1690
2018-04-23T15:43:13.498Z,1960
2018-04-23T15:44:22.343Z,595
2018-04-23T15:45:31.737Z,605
2018-04-23T15:46:40.584Z,1260
2018-04-23T15:47:49.431Z,1425
2018-04-23T15:48:58.272Z,1305
2018-04-23T15:50:07.120Z,1070
2018-04-23T15:51:15.968Z,1780
2018-04-23T15:52:25.213Z,1435
2018-04-23T15:53:34.057Z,2120
2018-04-23T15:54:42.900Z,2480
2018-04-23T15:55:51.747Z,2120
2018-04-23T15:57:00.590Z,1525
2018-04-23T15:58:09.532Z,1725
2018-04-23T15:59:18.382Z,1865
2018-04-23T16:00:27.505Z,2040
2018-04-23T16:01:36.627Z,2105
2018-04-23T16:02:45.475Z,2160
2018-04-23T16:03:54.731Z,2130